createdAt,value
2019-04-10T00:01:38.519Z,24.63
2019-04-10T00:04:10.485Z,25.67
2019-04-10T00:06:39.508Z,24.57
2019-04-10T00:09:10.596Z,24.63
2019-04-10T00:11:47.652Z,25.37
2019-04-10T00:14:20.397Z,24.60
2019-04-10T00:16:52.355Z,24.50
2019-04-10T00:19:23.544Z,25.23
2019-04-10T00:21:55.657Z,26.23
2019-04-10T00:24:26.452Z,25.87
2019-04-10T00:27:00.029Z,25.33
2019-04-10T00:29:34.320Z,26.83
2019-04-10T00:32:07.727Z,26.97
2019-04-10T00:34:40.191Z,25.73
2019-04-10T00:37:22.097Z,26.20
2019-04-10T00:39:44.459Z,25.30
2019-04-10T00:42:15.518Z,26.63
2019-04-10T00:44:48.824Z,25.97
2019-04-10T00:47:23.238Z,27.53
2019-04-10T00:49:56.242Z,30.20
2019-04-10T00:52:30.414Z,31.90
2019-04-10T00:55:04.188Z,26.67
2019-04-10T00:57:37.218Z,25.93
2019-04-10T01:00:14.847Z,26.63
2019-04-10T01:02:49.551Z,33.60
2019-04-10T01:05:20.384Z,27.27
2019-04-10T01:07:55.962Z,25.60
2019-04-10T01:10:28.404Z,26.43
2019-04-10T01:12:58.763Z,24.30
2019-04-10T01:15:34.452Z,25.27
2019-04-10T01:18:04.620Z,23.27
2019-04-10T01:20:38.549Z,25.30
2019-04-10T01:23:11.922Z,25.53
2019-04-10T01:25:43.657Z,25.67
2019-04-10T01:28:17.448Z,27.00
2019-04-10T01:30:47.147Z,25.27
2019-04-10T01:33:17.285Z,25.43
2019-04-10T01:35:59.504Z,25.93
2019-04-10T01:38:29.704Z,27.00
2019-04-10T01:41:00.144Z,25.13
2019-04-10T01:43:30.925Z,25.97
2019-04-10T01:46:08.821Z,26.07
2019-04-10T01:48:39.709Z,26.33
2019-04-10T01:51:10.805Z,26.20
2019-04-10T01:53:46.152Z,25.63
2019-04-10T01:56:30.258Z,22.80
2019-04-10T01:58:57.649Z,24.67
2019-04-10T02:01:31.254Z,24.30
2019-04-10T02:04:04.445Z,25.70
2019-04-10T02:06:37.710Z,25.10
2019-04-10T02:09:11.238Z,23.57
2019-04-10T02:11:46.007Z,24.60
2019-04-10T02:14:18.313Z,24.33
2019-04-10T02:16:49.357Z,24.50
2019-04-10T02:19:21.871Z,23.20
2019-04-10T02:21:51.897Z,23.90
2019-04-10T02:24:25.304Z,25.63
2019-04-10T02:26:56.113Z,24.90
2019-04-10T02:29:31.545Z,24.80
2019-04-10T02:32:08.390Z,25.13
2019-04-10T02:34:39.472Z,23.77
2019-04-10T02:37:12.900Z,25.07
2019-04-10T02:39:48.353Z,23.90
2019-04-10T02:42:20.941Z,23.83
2019-04-10T02:44:54.167Z,24.20
2019-04-10T02:47:28.653Z,25.20
2019-04-10T02:50:10.466Z,24.27
2019-04-10T02:52:42.949Z,25.33
2019-04-10T02:55:18.756Z,23.17
2019-04-10T02:57:54.112Z,24.37
2019-04-10T03:00:28.260Z,23.07
2019-04-10T03:02:56.968Z,25.33
2019-04-10T03:05:30.280Z,26.50
2019-04-10T03:08:06.997Z,24.77
2019-04-10T03:10:47.237Z,23.47
2019-04-10T03:13:11.754Z,25.33
2019-04-10T03:15:45.317Z,23.50
2019-04-10T03:18:17.619Z,24.83
2019-04-10T03:20:47.337Z,24.83
2019-04-10T03:23:19.195Z,24.80
2019-04-10T03:25:52.999Z,23.80
2019-04-10T03:28:24.963Z,23.07
2019-04-10T03:30:58.121Z,23.67
2019-04-10T03:33:33.023Z,25.13
2019-04-10T03:36:01.284Z,23.40
2019-04-10T03:38:30.341Z,23.77
2019-04-10T03:40:59.802Z,24.67
2019-04-10T03:43:29.949Z,23.53
2019-04-10T03:45:59.228Z,23.40
2019-04-10T03:48:29.256Z,24.37
2019-04-10T03:50:58.688Z,23.17
2019-04-10T03:53:27.815Z,24.10
2019-04-10T03:55:59.047Z,23.73
2019-04-10T03:58:28.520Z,22.87
2019-04-10T04:00:58.475Z,23.70
2019-04-10T04:03:32.976Z,23.67
2019-04-10T04:06:03.512Z,23.70
2019-04-10T04:08:32.650Z,24.07
2019-04-10T04:11:01.647Z,23.70
2019-04-10T04:13:31.268Z,24.60
2019-04-10T04:16:03.356Z,23.30
2019-04-10T04:18:33.259Z,24.27
2019-04-10T04:21:04.116Z,23.43
2019-04-10T04:23:34.588Z,24.13
2019-04-10T04:26:05.155Z,24.37
2019-04-10T04:28:36.228Z,24.77
2019-04-10T04:31:05.308Z,24.27
2019-04-10T04:33:34.508Z,24.90
2019-04-10T04:36:04.096Z,24.10
2019-04-10T04:38:32.992Z,24.97
2019-04-10T04:41:02.418Z,25.00
2019-04-10T04:43:32.678Z,25.53
2019-04-10T04:46:01.908Z,23.13
2019-04-10T04:48:31.794Z,23.70
2019-04-10T04:51:01.265Z,23.80
2019-04-10T04:53:32.226Z,23.33
2019-04-10T04:56:04.280Z,22.93
2019-04-10T04:58:33.966Z,21.40
2019-04-10T05:01:04.214Z,23.67
2019-04-10T05:03:33.746Z,24.07
2019-04-10T05:06:05.917Z,23.10
2019-04-10T05:08:35.189Z,24.43
2019-04-10T05:11:06.899Z,23.83
2019-04-10T05:13:35.825Z,23.30
2019-04-10T05:16:12.897Z,23.87
2019-04-10T05:18:39.079Z,23.03
2019-04-10T05:21:10.609Z,23.83
2019-04-10T05:23:40.972Z,22.03
2019-04-10T05:26:11.620Z,22.83
2019-04-10T05:28:44.520Z,23.20
2019-04-10T05:31:13.462Z,23.80
2019-04-10T05:33:43.083Z,23.27
2019-04-10T05:36:13.250Z,25.90
2019-04-10T05:38:43.901Z,22.00
2019-04-10T05:41:13.803Z,24.87
2019-04-10T05:43:42.942Z,22.77
2019-04-10T05:46:14.425Z,22.67
2019-04-10T05:48:44.122Z,23.60
2019-04-10T05:51:13.531Z,22.73
2019-04-10T05:53:45.586Z,22.97
2019-04-10T05:56:16.077Z,24.03
2019-04-10T05:58:45.655Z,26.20
2019-04-10T06:01:15.695Z,25.07
2019-04-10T06:03:50.816Z,24.43
2019-04-10T06:06:25.676Z,24.20
2019-04-10T06:08:58.318Z,26.93
2019-04-10T06:11:26.909Z,26.77
2019-04-10T06:13:56.917Z,26.23
2019-04-10T06:16:26.223Z,25.60
2019-04-10T06:18:59.933Z,31.87
2019-04-10T06:21:32.078Z,27.83
2019-04-10T06:24:07.591Z,26.77
2019-04-10T06:26:39.391Z,25.57
2019-04-10T06:29:09.182Z,26.73
2019-04-10T06:31:39.331Z,25.10
2019-04-10T06:34:10.829Z,25.10
2019-04-10T06:36:40.194Z,25.60
2019-04-10T06:39:12.902Z,25.97
2019-04-10T06:41:49.328Z,25.20
2019-04-10T06:44:21.872Z,24.80
2019-04-10T06:46:51.508Z,27.63
2019-04-10T06:49:29.143Z,26.53
2019-04-10T06:52:06.160Z,26.10
2019-04-10T06:54:36.684Z,25.63
2019-04-10T06:57:10.444Z,26.13
2019-04-10T06:59:48.175Z,24.97
2019-04-10T07:02:25.624Z,23.07
2019-04-10T07:05:05.059Z,24.43
2019-04-10T07:07:46.528Z,23.93
2019-04-10T07:10:26.073Z,23.17
2019-04-10T07:13:13.523Z,22.47
2019-04-10T07:15:49.648Z,23.10
2019-04-10T07:18:26.309Z,22.03
2019-04-10T07:21:06.416Z,23.63
2019-04-10T07:23:42.820Z,22.23
2019-04-10T07:26:33.268Z,22.00
2019-04-10T07:28:58.690Z,22.23
2019-04-10T07:31:27.622Z,21.30
2019-04-10T07:33:57.697Z,22.30
2019-04-10T07:36:27.248Z,21.47
2019-04-10T07:39:01.562Z,21.83
2019-04-10T07:41:33.408Z,22.70
2019-04-10T07:44:14.223Z,21.47
2019-04-10T07:46:48.912Z,20.70
2019-04-10T07:49:26.682Z,20.43
2019-04-10T07:51:58.628Z,21.10
2019-04-10T07:54:33.067Z,20.33
2019-04-10T07:57:04.201Z,19.87
2019-04-10T07:59:35.557Z,22.07
2019-04-10T08:02:07.361Z,21.03
2019-04-10T08:04:43.170Z,20.70
2019-04-10T08:07:25.742Z,22.87
2019-04-10T08:09:51.965Z,19.40
2019-04-10T08:12:38.451Z,20.23
2019-04-10T08:15:01.294Z,20.27
2019-04-10T08:17:49.332Z,20.40
2019-04-10T08:20:22.630Z,20.27
2019-04-10T08:25:49.740Z,19.17
2019-04-10T08:28:27.088Z,20.70
2019-04-10T08:30:58.866Z,19.57
2019-04-10T08:33:42.025Z,20.03
2019-04-10T08:36:12.972Z,20.10
2019-04-10T08:38:46.684Z,19.47
2019-04-10T08:41:17.834Z,19.57
2019-04-10T08:44:17.763Z,18.67
2019-04-10T08:50:15.700Z,18.63
2019-04-10T08:52:49.209Z,18.63
2019-04-10T08:55:26.147Z,17.93
2019-04-10T08:57:58.993Z,19.17
2019-04-10T09:00:36.995Z,18.97
2019-04-10T09:03:14.863Z,18.63
2019-04-10T09:05:49.027Z,21.87
2019-04-10T09:08:19.236Z,18.73
2019-04-10T09:10:54.605Z,21.00
2019-04-10T09:13:29.063Z,19.43
2019-04-10T09:16:03.193Z,19.00
2019-04-10T09:18:37.188Z,18.90
2019-04-10T09:21:07.943Z,19.03
2019-04-10T09:23:47.300Z,16.97
2019-04-10T09:26:13.444Z,16.30
2019-04-10T09:28:45.273Z,15.57
2019-04-10T09:31:23.848Z,16.50
2019-04-10T09:34:50.106Z,14.73
2019-04-10T09:37:00.417Z,15.30
2019-04-10T09:39:51.723Z,16.20
2019-04-10T09:42:57.655Z,16.33
2019-04-10T09:45:28.414Z,16.30
2019-04-10T09:48:04.261Z,15.80
2019-04-10T09:50:40.316Z,14.87
2019-04-10T09:53:45.408Z,16.77
2019-04-10T09:56:30.766Z,16.53
2019-04-10T09:59:07.632Z,17.07
2019-04-10T10:01:46.467Z,15.40
2019-04-10T10:04:21.555Z,14.93
2019-04-10T10:06:57.341Z,15.13
2019-04-10T10:09:32.592Z,16.07
2019-04-10T10:12:25.625Z,16.70
2019-04-10T10:15:00.929Z,15.63
2019-04-10T10:17:42.179Z,16.10
2019-04-10T10:20:24.479Z,16.43
2019-04-10T10:23:17.980Z,16.20
2019-04-10T10:26:03.746Z,19.02
2019-04-10T10:28:44.984Z,15.37
2019-04-10T10:31:27.062Z,14.73
2019-04-10T10:34:20.738Z,14.73
2019-04-10T10:37:18.630Z,16.40
2019-04-10T10:40:13.142Z,15.50
2019-04-10T10:45:58.807Z,16.27
2019-04-10T10:51:30.897Z,15.67
2019-04-10T10:54:10.489Z,15.17
2019-04-10T10:56:55.001Z,15.63
2019-04-10T10:59:45.969Z,16.07
2019-04-10T11:02:17.112Z,17.00
2019-04-10T11:04:55.858Z,15.43
2019-04-10T11:07:25.022Z,14.77
2019-04-10T11:09:56.940Z,14.67
2019-04-10T11:12:38.407Z,15.33
2019-04-10T11:15:10.208Z,15.33
2019-04-10T11:17:49.867Z,16.47
2019-04-10T11:20:29.829Z,15.83
2019-04-10T11:23:16.088Z,15.77
2019-04-10T11:25:50.351Z,15.90
2019-04-10T11:28:39.168Z,15.47
2019-04-10T11:31:17.749Z,14.47
2019-04-10T11:33:53.319Z,14.97
2019-04-10T11:36:25.882Z,15.43
2019-04-10T11:39:16.740Z,17.83
2019-04-10T11:41:39.874Z,17.53
2019-04-10T11:44:16.056Z,16.87
2019-04-10T11:46:46.256Z,17.40
2019-04-10T11:49:20.143Z,16.47
2019-04-10T11:51:53.656Z,16.80
2019-04-10T11:54:35.461Z,17.20
2019-04-10T11:57:03.253Z,17.33
2019-04-10T11:59:36.232Z,17.37
2019-04-10T12:02:12.030Z,16.87
2019-04-10T12:04:50.691Z,17.57
2019-04-10T12:07:53.008Z,16.93
2019-04-10T12:12:33.422Z,17.60
2019-04-10T12:15:10.107Z,16.23
2019-04-10T12:17:44.199Z,17.30
2019-04-10T12:20:16.712Z,16.83
2019-04-10T12:22:48.284Z,17.20
2019-04-10T12:25:19.236Z,16.67
2019-04-10T12:27:49.423Z,16.20
2019-04-10T12:30:20.232Z,17.17
2019-04-10T12:32:54.706Z,16.23
2019-04-10T12:35:26.381Z,16.53
2019-04-10T12:38:03.733Z,16.47
2019-04-10T12:40:42.517Z,16.70
2019-04-10T12:43:12.663Z,16.07
2019-04-10T12:45:46.547Z,15.93
2019-04-10T12:48:28.443Z,16.47
2019-04-10T12:51:10.463Z,16.07
2019-04-10T12:53:47.688Z,15.83
2019-04-10T12:56:24.079Z,15.63
2019-04-10T12:58:57.831Z,16.37
2019-04-10T13:01:30.999Z,16.43
2019-04-10T13:04:03.669Z,15.60
2019-04-10T13:06:40.440Z,14.13
2019-04-10T13:09:19.875Z,17.07
2019-04-10T13:11:51.250Z,14.97
2019-04-10T13:14:25.081Z,15.40
2019-04-10T13:17:00.534Z,15.70
2019-04-10T13:19:35.690Z,16.17
2019-04-10T13:22:08.142Z,14.47
2019-04-10T13:24:47.962Z,14.57
2019-04-10T13:27:20.866Z,14.97
2019-04-10T13:29:57.703Z,16.23
2019-04-10T13:32:34.053Z,14.63
2019-04-10T13:35:13.573Z,15.77
2019-04-10T13:37:50.633Z,13.00
2019-04-10T13:40:23.631Z,13.27
2019-04-10T13:42:57.801Z,14.63
2019-04-10T13:45:39.410Z,14.70
2019-04-10T13:48:10.204Z,15.87
2019-04-10T13:50:43.232Z,14.73
2019-04-10T13:53:15.461Z,15.10
2019-04-10T13:55:48.909Z,16.20
2019-04-10T13:58:21.811Z,15.90
2019-04-10T14:00:56.312Z,15.47
2019-04-10T14:03:30.156Z,16.40
2019-04-10T14:06:08.143Z,16.00
2019-04-10T14:08:59.884Z,15.77
2019-04-10T14:11:17.868Z,15.67
2019-04-10T14:14:12.681Z,15.53
2019-04-10T14:16:48.875Z,17.13
2019-04-10T14:19:19.860Z,16.37
2019-04-10T14:21:53.510Z,16.23
2019-04-10T14:24:41.236Z,16.17
2019-04-10T14:27:10.273Z,16.00
2019-04-10T14:29:54.383Z,15.47
2019-04-10T14:32:29.934Z,17.27
2019-04-10T14:35:08.061Z,15.93
2019-04-10T14:37:41.309Z,16.90
2019-04-10T14:40:13.599Z,15.57
2019-04-10T14:42:47.333Z,16.47
2019-04-10T14:45:23.576Z,16.17
2019-04-10T14:47:57.171Z,16.53
2019-04-10T14:50:39.899Z,15.77
2019-04-10T14:53:08.303Z,16.30
2019-04-10T14:55:37.720Z,15.40
2019-04-10T14:58:20.583Z,16.07
2019-04-10T15:00:50.177Z,15.33
2019-04-10T15:03:26.506Z,14.27
2019-04-10T15:05:58.315Z,15.63
2019-04-10T15:08:29.444Z,14.67
2019-04-10T15:11:00.229Z,15.43
2019-04-10T15:13:31.809Z,15.20
2019-04-10T15:16:01.291Z,15.37
2019-04-10T15:18:37.206Z,14.70
2019-04-10T15:21:14.474Z,12.93
2019-04-10T15:23:50.995Z,15.60
2019-04-10T15:26:24.447Z,15.97
2019-04-10T15:28:58.209Z,15.57
2019-04-10T15:31:31.223Z,15.17
2019-04-10T15:34:05.717Z,14.40
2019-04-10T15:36:37.351Z,14.90
2019-04-10T15:39:12.677Z,14.40
2019-04-10T15:41:49.643Z,13.93
2019-04-10T15:44:25.896Z,15.00
2019-04-10T15:46:53.682Z,13.57
2019-04-10T15:49:30.639Z,13.13
2019-04-10T15:52:04.292Z,14.63
2019-04-10T15:54:34.674Z,14.03
2019-04-10T15:57:10.741Z,13.50
2019-04-10T15:59:40.651Z,14.13
2019-04-10T16:02:11.542Z,13.90
2019-04-10T16:04:44.447Z,14.47
2019-04-10T16:07:20.251Z,13.03
2019-04-10T16:09:54.771Z,14.20
2019-04-10T16:12:26.975Z,14.37
2019-04-10T16:15:03.273Z,13.93
2019-04-10T16:17:43.935Z,13.57
2019-04-10T16:20:27.394Z,13.83
2019-04-10T16:23:14.296Z,14.23
2019-04-10T16:26:03.242Z,13.60
2019-04-10T16:28:49.431Z,13.53
2019-04-10T16:31:23.570Z,13.17
2019-04-10T16:33:58.522Z,14.40
2019-04-10T16:36:33.496Z,13.30
2019-04-10T16:39:11.372Z,13.00
2019-04-10T16:41:46.187Z,14.13
2019-04-10T16:44:22.636Z,13.80
2019-04-10T16:46:55.263Z,13.03
2019-04-10T16:49:26.708Z,12.57
2019-04-10T16:52:34.347Z,13.97
2019-04-10T16:54:53.466Z,14.10
2019-04-10T16:57:20.657Z,14.03
2019-04-10T16:59:53.334Z,12.87
2019-04-10T17:02:26.258Z,12.77
2019-04-10T17:05:04.046Z,13.30
2019-04-10T17:07:41.737Z,13.03
2019-04-10T17:10:26.384Z,12.97
2019-04-10T17:12:55.698Z,13.13
2019-04-10T17:15:32.168Z,13.83
2019-04-10T17:18:06.631Z,13.53
2019-04-10T17:20:38.344Z,13.57
2019-04-10T17:23:16.922Z,13.93
2019-04-10T17:25:49.181Z,13.50
2019-04-10T17:28:22.985Z,12.70
2019-04-10T17:30:54.056Z,13.43
2019-04-10T17:33:32.286Z,13.47
2019-04-10T17:36:12.588Z,13.37
2019-04-10T17:38:47.345Z,13.00
2019-04-10T17:41:18.019Z,12.83
2019-04-10T17:43:51.644Z,13.47
2019-04-10T17:46:26.992Z,14.07
2019-04-10T17:49:03.191Z,12.40
2019-04-10T17:51:54.466Z,13.37
2019-04-10T17:57:21.083Z,12.63
2019-04-10T17:59:52.673Z,13.07
2019-04-10T18:02:27.593Z,11.77
2019-04-10T18:04:59.099Z,12.20
2019-04-10T18:07:32.608Z,12.17
2019-04-10T18:10:04.434Z,13.23
2019-04-10T18:12:38.358Z,12.67
2019-04-10T18:15:19.789Z,13.07
2019-04-10T18:17:55.572Z,12.23
2019-04-10T18:20:35.843Z,11.77
2019-04-10T18:23:05.239Z,11.43
2019-04-10T18:28:46.244Z,11.63
2019-04-10T18:31:16.634Z,11.57
2019-04-10T18:33:53.226Z,11.63
2019-04-10T18:36:24.422Z,12.10
2019-04-10T18:38:57.736Z,11.40
2019-04-10T18:41:36.049Z,11.00
2019-04-10T18:44:11.094Z,11.47
2019-04-10T18:46:46.742Z,11.47
2019-04-10T18:49:31.634Z,11.30
2019-04-10T18:51:50.036Z,12.47
2019-04-10T18:54:20.187Z,11.10
2019-04-10T18:56:55.596Z,12.13
2019-04-10T18:59:30.282Z,11.53
2019-04-10T19:02:04.036Z,11.43
2019-04-10T19:04:52.239Z,11.23
2019-04-10T19:07:25.101Z,11.97
2019-04-10T19:09:58.236Z,11.37
2019-04-10T19:12:29.649Z,12.03
2019-04-10T19:15:00.701Z,12.13
2019-04-10T19:17:35.103Z,12.10
2019-04-10T19:20:07.705Z,12.07
2019-04-10T19:22:40.345Z,12.50
2019-04-10T19:25:14.501Z,12.40
2019-04-10T19:27:48.616Z,12.13
2019-04-10T19:30:35.338Z,12.07
2019-04-10T19:33:07.977Z,11.70
2019-04-10T19:35:47.562Z,12.20
2019-04-10T19:38:19.480Z,11.70
2019-04-10T19:41:04.721Z,12.37
2019-04-10T19:43:37.905Z,11.37
2019-04-10T19:46:12.726Z,12.90
2019-04-10T19:48:43.673Z,11.70
2019-04-10T19:51:23.818Z,11.67
2019-04-10T19:53:55.665Z,10.83
2019-04-10T19:56:32.774Z,11.50
2019-04-10T19:59:02.857Z,10.87
2019-04-10T20:01:42.978Z,12.07
2019-04-10T20:04:15.108Z,11.97
2019-04-10T20:06:45.103Z,12.23
2019-04-10T20:09:22.111Z,11.47
2019-04-10T20:12:02.411Z,11.27
2019-04-10T20:14:44.256Z,12.10
2019-04-10T20:17:15.619Z,11.83
2019-04-10T20:19:45.407Z,11.37
2019-04-10T20:22:36.900Z,12.67
2019-04-10T20:25:08.406Z,12.40
2019-04-10T20:27:41.384Z,11.87
2019-04-10T20:30:15.364Z,13.03
2019-04-10T20:32:47.254Z,12.20
2019-04-10T20:35:29.839Z,12.40
2019-04-10T20:37:59.397Z,10.90
2019-04-10T20:40:29.773Z,12.50
2019-04-10T20:43:08.890Z,11.03
2019-04-10T20:45:45.448Z,12.10
2019-04-10T20:48:14.099Z,12.10
2019-04-10T20:51:04.267Z,11.23
2019-04-10T20:53:42.223Z,10.80
2019-04-10T20:56:16.883Z,11.27
2019-04-10T20:58:50.469Z,13.10
2019-04-10T21:01:27.407Z,10.67
2019-04-10T21:03:58.792Z,11.13
2019-04-10T21:06:31.794Z,12.27
2019-04-10T21:09:11.716Z,12.07
2019-04-10T21:12:00.912Z,12.10
2019-04-10T21:14:24.290Z,12.10
2019-04-10T21:16:54.748Z,11.80
2019-04-10T21:19:29.104Z,12.20
2019-04-10T21:22:00.034Z,12.20
2019-04-10T21:24:31.539Z,11.73
2019-04-10T21:27:06.241Z,11.90
2019-04-10T21:29:57.684Z,11.23
2019-04-10T21:32:43.210Z,11.87
2019-04-10T21:35:17.373Z,12.23
2019-04-10T21:37:52.854Z,10.93
2019-04-10T21:40:21.425Z,12.07
2019-04-10T21:43:01.832Z,10.93
2019-04-10T21:45:32.686Z,11.43
2019-04-10T21:48:04.347Z,12.07
2019-04-10T21:50:39.872Z,11.27
2019-04-10T21:53:10.792Z,11.87
2019-04-10T21:55:46.288Z,11.60
2019-04-10T21:58:19.931Z,11.23
2019-04-10T22:00:54.145Z,11.93
2019-04-10T22:03:27.519Z,12.10
2019-04-10T22:06:11.786Z,10.97
2019-04-10T22:08:50.024Z,11.33
2019-04-10T22:11:21.504Z,11.43
2019-04-10T22:13:52.927Z,10.93
2019-04-10T22:16:28.562Z,12.23
2019-04-10T22:19:01.570Z,11.50
2019-04-10T22:21:34.362Z,12.37
2019-04-10T22:24:09.488Z,11.53
2019-04-10T22:26:40.860Z,11.27
2019-04-10T22:29:17.626Z,11.00
2019-04-10T22:31:49.161Z,11.63
2019-04-10T22:34:21.745Z,11.70
2019-04-10T22:36:55.823Z,11.27
2019-04-10T22:39:27.376Z,13.33
2019-04-10T22:42:01.412Z,12.33
2019-04-10T22:44:40.094Z,12.17
2019-04-10T22:47:07.596Z,11.87
2019-04-10T22:49:41.212Z,11.53
2019-04-10T22:52:15.621Z,12.07
2019-04-10T22:54:50.909Z,13.67
2019-04-10T22:57:27.213Z,15.40
2019-04-10T23:00:03.316Z,12.07
2019-04-10T23:02:36.323Z,11.63
2019-04-10T23:05:11.989Z,11.53
2019-04-10T23:08:01.630Z,11.27
2019-04-10T23:10:37.188Z,11.07
2019-04-10T23:13:18.115Z,11.43
2019-04-10T23:15:49.459Z,10.50
2019-04-10T23:18:21.296Z,11.63
2019-04-10T23:20:52.172Z,11.40
2019-04-10T23:23:23.127Z,11.00
2019-04-10T23:25:55.093Z,11.63
2019-04-10T23:28:29.514Z,10.20
2019-04-10T23:31:01.407Z,10.33
2019-04-10T23:33:39.780Z,11.50
2019-04-10T23:36:11.869Z,10.97
2019-04-10T23:38:50.013Z,11.23
2019-04-10T23:41:28.114Z,11.00
2019-04-10T23:44:04.020Z,11.37
2019-04-10T23:46:43.330Z,12.13
2019-04-10T23:49:19.431Z,11.53
2019-04-10T23:52:01.227Z,11.80
2019-04-10T23:54:33.333Z,11.07
2019-04-10T23:57:07.359Z,11.87
2019-04-10T23:59:40.408Z,11.27
